sensor_id;sensor_type;location;lat;lon;timestamp;P1;durP1;ratioP1;P2;durP2;ratioP2
4921;SDS011;16625;53.624;10.106;2023-03-01T00:00:18;19.13;;;12.00;;
4921;SDS011;16625;53.624;10.106;2023-03-01T00:02:45;22.37;;;11.27;;
4921;SDS011;16625;53.624;10.106;2023-03-01T00:05:12;22.63;;;13.10;;
4921;SDS011;16625;53.624;10.106;2023-03-01T00:07:41;25.77;;;15.27;;
4921;SDS011;16625;53.624;10.106;2023-03-01T00:10:08;20.30;;;11.40;;
4921;SDS011;16625;53.624;10.106;2023-03-01T00:12:36;18.63;;;11.67;;
4921;SDS011;16625;53.624;10.106;2023-03-01T00:15:03;18.83;;;11.40;;
4921;SDS011;16625;53.624;10.106;2023-03-01T00:17:30;26.07;;;12.60;;
4921;SDS011;16625;53.624;10.106;2023-03-01T00:19:57;22.60;;;11.83;;
4921;SDS011;16625;53.624;10.106;2023-03-01T00:22:26;25.30;;;12.10;;
4921;SDS011;16625;53.624;10.106;2023-03-01T00:24:55;23.63;;;12.77;;
4921;SDS011;16625;53.624;10.106;2023-03-01T00:27:23;21.47;;;11.83;;
4921;SDS011;16625;53.624;10.106;2023-03-01T00:29:50;20.70;;;11.70;;
4921;SDS011;16625;53.624;10.106;2023-03-01T00:32:18;24.87;;;12.00;;
4921;SDS011;16625;53.624;10.106;2023-03-01T00:34:45;17.80;;;11.00;;
4921;SDS011;16625;53.624;10.106;2023-03-01T00:37:19;27.03;;;12.50;;
4921;SDS011;16625;53.624;10.106;2023-03-01T00:39:46;15.37;;;10.20;;
4921;SDS011;16625;53.624;10.106;2023-03-01T00:42:14;18.87;;;11.27;;
4921;SDS011;16625;53.624;10.106;2023-03-01T00:44:42;23.97;;;11.70;;
4921;SDS011;16625;53.624;10.106;2023-03-01T00:47:09;23.27;;;12.47;;
4921;SDS011;16625;53.624;10.106;2023-03-01T00:49:36;29.47;;;13.20;;
4921;SDS011;16625;53.624;10.106;2023-03-01T00:52:05;21.30;;;13.23;;
4921;SDS011;16625;53.624;10.106;2023-03-01T00:54:32;22.57;;;11.93;;
4921;SDS011;16625;53.624;10.106;2023-03-01T00:56:59;28.30;;;13.67;;
4921;SDS011;16625;53.624;10.106;2023-03-01T00:59:27;25.00;;;13.80;;
4921;SDS011;16625;53.624;10.106;2023-03-01T01:01:54;23.97;;;12.40;;
4921;SDS011;16625;53.624;10.106;2023-03-01T01:04:21;18.40;;;11.23;;
4921;SDS011;16625;53.624;10.106;2023-03-01T01:06:48;23.50;;;11.70;;
4921;SDS011;16625;53.624;10.106;2023-03-01T01:09:16;24.27;;;12.53;;
4921;SDS011;16625;53.624;10.106;2023-03-01T01:11:45;25.57;;;10.53;;
4921;SDS011;16625;53.624;10.106;2023-03-01T01:14:13;26.20;;;13.50;;
4921;SDS011;16625;53.624;10.106;2023-03-01T01:16:42;19.30;;;10.40;;
4921;SDS011;16625;53.624;10.106;2023-03-01T01:19:09;19.40;;;11.10;;
4921;SDS011;16625;53.624;10.106;2023-03-01T01:21:38;27.90;;;14.60;;
4921;SDS011;16625;53.624;10.106;2023-03-01T01:24:08;23.70;;;12.63;;
4921;SDS011;16625;53.624;10.106;2023-03-01T01:26:35;19.10;;;11.47;;
4921;SDS011;16625;53.624;10.106;2023-03-01T01:29:06;24.37;;;12.93;;
4921;SDS011;16625;53.624;10.106;2023-03-01T01:31:34;21.40;;;13.37;;
4921;SDS011;16625;53.624;10.106;2023-03-01T01:34:04;30.90;;;11.17;;
4921;SDS011;16625;53.624;10.106;2023-03-01T01:36:33;16.20;;;11.50;;
4921;SDS011;16625;53.624;10.106;2023-03-01T01:39:01;23.07;;;12.40;;
4921;SDS011;16625;53.624;10.106;2023-03-01T01:41:28;23.13;;;12.40;;
4921;SDS011;16625;53.624;10.106;2023-03-01T01:44:09;19.13;;;11.30;;
4921;SDS011;16625;53.624;10.106;2023-03-01T01:46:38;21.20;;;12.93;;
4921;SDS011;16625;53.624;10.106;2023-03-01T01:49:13;19.70;;;13.27;;
4921;SDS011;16625;53.624;10.106;2023-03-01T01:51:51;24.70;;;13.43;;
4921;SDS011;16625;53.624;10.106;2023-03-01T01:54:23;18.90;;;11.77;;
4921;SDS011;16625;53.624;10.106;2023-03-01T01:56:55;29.00;;;11.63;;
4921;SDS011;16625;53.624;10.106;2023-03-01T01:59:25;22.30;;;13.57;;
4921;SDS011;16625;53.624;10.106;2023-03-01T02:01:54;23.80;;;13.13;;
4921;SDS011;16625;53.624;10.106;2023-03-01T02:04:25;18.93;;;12.17;;
4921;SDS011;16625;53.624;10.106;2023-03-01T02:06:55;27.60;;;13.43;;
4921;SDS011;16625;53.624;10.106;2023-03-01T02:09:27;25.83;;;12.87;;
4921;SDS011;16625;53.624;10.106;2023-03-01T02:11:56;25.67;;;13.40;;
4921;SDS011;16625;53.624;10.106;2023-03-01T02:14:24;30.00;;;12.80;;
4921;SDS011;16625;53.624;10.106;2023-03-01T02:16:51;22.23;;;11.97;;
4921;SDS011;16625;53.624;10.106;2023-03-01T02:19:22;27.43;;;13.80;;
4921;SDS011;16625;53.624;10.106;2023-03-01T02:21:58;19.37;;;11.90;;
4921;SDS011;16625;53.624;10.106;2023-03-01T02:24:32;19.50;;;10.40;;
4921;SDS011;16625;53.624;10.106;2023-03-01T02:27:08;19.27;;;12.30;;
4921;SDS011;16625;53.624;10.106;2023-03-01T02:29:38;20.03;;;11.80;;
4921;SDS011;16625;53.624;10.106;2023-03-01T02:32:05;21.50;;;13.20;;
4921;SDS011;16625;53.624;10.106;2023-03-01T02:34:33;23.73;;;12.40;;
4921;SDS011;16625;53.624;10.106;2023-03-01T02:37:00;21.50;;;12.27;;
4921;SDS011;16625;53.624;10.106;2023-03-01T02:39:31;21.77;;;12.37;;
4921;SDS011;16625;53.624;10.106;2023-03-01T02:42:06;21.70;;;12.20;;
4921;SDS011;16625;53.624;10.106;2023-03-01T02:44:38;20.37;;;11.37;;
4921;SDS011;16625;53.624;10.106;2023-03-01T02:47:05;21.20;;;11.83;;
4921;SDS011;16625;53.624;10.106;2023-03-01T02:49:33;26.90;;;12.20;;
4921;SDS011;16625;53.624;10.106;2023-03-01T02:52:04;14.60;;;10.40;;
4921;SDS011;16625;53.624;10.106;2023-03-01T02:54:47;22.97;;;12.17;;
4921;SDS011;16625;53.624;10.106;2023-03-01T02:57:17;19.33;;;11.13;;
4921;SDS011;16625;53.624;10.106;2023-03-01T02:59:46;23.33;;;11.47;;
4921;SDS011;16625;53.624;10.106;2023-03-01T03:02:22;22.07;;;12.67;;
4921;SDS011;16625;53.624;10.106;2023-03-01T03:05:01;22.60;;;11.93;;
4921;SDS011;16625;53.624;10.106;2023-03-01T03:07:33;21.27;;;11.80;;
4921;SDS011;16625;53.624;10.106;2023-03-01T03:10:01;27.33;;;11.17;;
4921;SDS011;16625;53.624;10.106;2023-03-01T03:12:28;25.93;;;12.97;;
4921;SDS011;16625;53.624;10.106;2023-03-01T03:14:57;22.93;;;11.50;;
4921;SDS011;16625;53.624;10.106;2023-03-01T03:17:24;19.93;;;11.07;;
4921;SDS011;16625;53.624;10.106;2023-03-01T03:19:51;26.00;;;12.53;;
4921;SDS011;16625;53.624;10.106;2023-03-01T03:22:20;23.27;;;11.73;;
4921;SDS011;16625;53.624;10.106;2023-03-01T03:24:46;20.83;;;11.87;;
4921;SDS011;16625;53.624;10.106;2023-03-01T03:27:13;19.47;;;11.70;;
4921;SDS011;16625;53.624;10.106;2023-03-01T03:29:40;22.90;;;11.73;;
4921;SDS011;16625;53.624;10.106;2023-03-01T03:32:08;16.97;;;11.77;;
4921;SDS011;16625;53.624;10.106;2023-03-01T03:34:35;16.77;;;11.10;;
4921;SDS011;16625;53.624;10.106;2023-03-01T03:37:02;21.77;;;10.83;;
4921;SDS011;16625;53.624;10.106;2023-03-01T03:39:49;26.30;;;11.20;;
4921;SDS011;16625;53.624;10.106;2023-03-01T03:42:19;24.30;;;12.07;;
4921;SDS011;16625;53.624;10.106;2023-03-01T03:44:46;18.57;;;12.20;;
4921;SDS011;16625;53.624;10.106;2023-03-01T03:47:15;21.27;;;12.40;;
4921;SDS011;16625;53.624;10.106;2023-03-01T03:49:41;35.90;;;12.40;;
4921;SDS011;16625;53.624;10.106;2023-03-01T03:52:08;20.53;;;11.37;;
4921;SDS011;16625;53.624;10.106;2023-03-01T03:54:38;23.00;;;12.07;;
4921;SDS011;16625;53.624;10.106;2023-03-01T03:57:05;15.80;;;10.90;;
4921;SDS011;16625;53.624;10.106;2023-03-01T03:59:32;20.33;;;13.17;;
4921;SDS011;16625;53.624;10.106;2023-03-01T04:02:00;16.80;;;10.47;;
4921;SDS011;16625;53.624;10.106;2023-03-01T04:04:28;22.00;;;11.50;;
4921;SDS011;16625;53.624;10.106;2023-03-01T04:06:55;27.33;;;10.97;;
4921;SDS011;16625;53.624;10.106;2023-03-01T04:09:22;31.60;;;13.77;;
4921;SDS011;16625;53.624;10.106;2023-03-01T04:11:49;24.37;;;12.77;;
4921;SDS011;16625;53.624;10.106;2023-03-01T04:14:16;20.23;;;11.70;;
4921;SDS011;16625;53.624;10.106;2023-03-01T04:16:43;18.90;;;11.23;;
4921;SDS011;16625;53.624;10.106;2023-03-01T04:19:10;24.87;;;11.40;;
4921;SDS011;16625;53.624;10.106;2023-03-01T04:21:38;20.37;;;10.83;;
4921;SDS011;16625;53.624;10.106;2023-03-01T04:24:05;17.10;;;11.60;;
4921;SDS011;16625;53.624;10.106;2023-03-01T04:26:34;20.63;;;11.20;;
4921;SDS011;16625;53.624;10.106;2023-03-01T04:29:01;14.50;;;11.30;;
4921;SDS011;16625;53.624;10.106;2023-03-01T04:31:28;23.90;;;12.40;;
4921;SDS011;16625;53.624;10.106;2023-03-01T04:33:55;17.97;;;10.67;;
4921;SDS011;16625;53.624;10.106;2023-03-01T04:36:23;21.53;;;11.10;;
4921;SDS011;16625;53.624;10.106;2023-03-01T04:38:53;14.57;;;10.53;;
4921;SDS011;16625;53.624;10.106;2023-03-01T04:41:22;26.33;;;11.20;;
4921;SDS011;16625;53.624;10.106;2023-03-01T04:43:50;17.03;;;10.80;;
4921;SDS011;16625;53.624;10.106;2023-03-01T04:46:18;14.13;;;10.40;;
4921;SDS011;16625;53.624;10.106;2023-03-01T04:48:47;20.60;;;11.07;;
4921;SDS011;16625;53.624;10.106;2023-03-01T04:51:14;21.17;;;10.90;;
4921;SDS011;16625;53.624;10.106;2023-03-01T04:53:43;18.83;;;11.13;;
4921;SDS011;16625;53.624;10.106;2023-03-01T04:56:15;18.00;;;11.43;;
4921;SDS011;16625;53.624;10.106;2023-03-01T04:58:43;21.43;;;12.90;;
4921;SDS011;16625;53.624;10.106;2023-03-01T05:01:11;13.77;;;9.47;;
4921;SDS011;16625;53.624;10.106;2023-03-01T05:03:41;19.37;;;10.77;;
4921;SDS011;16625;53.624;10.106;2023-03-01T05:06:09;17.83;;;10.53;;
4921;SDS011;16625;53.624;10.106;2023-03-01T05:08:36;25.40;;;12.07;;
4921;SDS011;16625;53.624;10.106;2023-03-01T05:11:04;22.33;;;11.93;;
4921;SDS011;16625;53.624;10.106;2023-03-01T05:13:35;16.30;;;10.33;;
4921;SDS011;16625;53.624;10.106;2023-03-01T05:16:04;23.60;;;11.70;;
4921;SDS011;16625;53.624;10.106;2023-03-01T05:18:36;21.40;;;11.63;;
4921;SDS011;16625;53.624;10.106;2023-03-01T05:21:06;33.33;;;11.83;;
4921;SDS011;16625;53.624;10.106;2023-03-01T05:23:35;22.60;;;12.03;;
4921;SDS011;16625;53.624;10.106;2023-03-01T05:26:02;24.63;;;13.37;;
4921;SDS011;16625;53.624;10.106;2023-03-01T05:28:31;24.57;;;13.00;;
4921;SDS011;16625;53.624;10.106;2023-03-01T05:31:00;26.63;;;13.23;;
4921;SDS011;16625;53.624;10.106;2023-03-01T05:33:29;24.70;;;14.50;;
4921;SDS011;16625;53.624;10.106;2023-03-01T05:35:59;24.97;;;13.30;;
4921;SDS011;16625;53.624;10.106;2023-03-01T05:38:26;32.37;;;14.07;;
4921;SDS011;16625;53.624;10.106;2023-03-01T05:40:53;23.53;;;13.23;;
4921;SDS011;16625;53.624;10.106;2023-03-01T05:43:23;20.93;;;12.43;;
4921;SDS011;16625;53.624;10.106;2023-03-01T05:45:50;16.73;;;12.50;;
4921;SDS011;16625;53.624;10.106;2023-03-01T05:48:18;23.10;;;13.03;;
4921;SDS011;16625;53.624;10.106;2023-03-01T05:50:45;18.60;;;11.70;;
4921;SDS011;16625;53.624;10.106;2023-03-01T05:53:14;23.33;;;13.30;;
4921;SDS011;16625;53.624;10.106;2023-03-01T05:55:44;22.83;;;12.10;;
4921;SDS011;16625;53.624;10.106;2023-03-01T05:58:12;19.97;;;12.13;;
4921;SDS011;16625;53.624;10.106;2023-03-01T06:00:40;18.40;;;9.73;;
4921;SDS011;16625;53.624;10.106;2023-03-01T06:03:09;20.83;;;9.90;;
4921;SDS011;16625;53.624;10.106;2023-03-01T06:05:38;15.10;;;9.90;;
4921;SDS011;16625;53.624;10.106;2023-03-01T06:08:06;12.27;;;7.57;;
4921;SDS011;16625;53.624;10.106;2023-03-01T06:10:35;20.40;;;8.90;;
4921;SDS011;16625;53.624;10.106;2023-03-01T06:13:02;16.00;;;8.90;;
4921;SDS011;16625;53.624;10.106;2023-03-01T06:15:29;14.17;;;8.03;;
4921;SDS011;16625;53.624;10.106;2023-03-01T06:17:56;12.43;;;9.13;;
4921;SDS011;16625;53.624;10.106;2023-03-01T06:20:24;16.50;;;8.50;;
4921;SDS011;16625;53.624;10.106;2023-03-01T06:22:54;12.60;;;8.10;;
4921;SDS011;16625;53.624;10.106;2023-03-01T06:25:21;12.47;;;7.97;;
4921;SDS011;16625;53.624;10.106;2023-03-01T06:27:50;14.33;;;8.30;;
4921;SDS011;16625;53.624;10.106;2023-03-01T06:30:19;17.03;;;9.73;;
4921;SDS011;16625;53.624;10.106;2023-03-01T06:32:47;14.40;;;8.77;;
4921;SDS011;16625;53.624;10.106;2023-03-01T06:35:14;11.73;;;8.20;;
4921;SDS011;16625;53.624;10.106;2023-03-01T06:37:43;29.30;;;10.03;;
4921;SDS011;16625;53.624;10.106;2023-03-01T06:40:12;15.40;;;9.73;;
4921;SDS011;16625;53.624;10.106;2023-03-01T06:42:40;12.47;;;8.37;;
4921;SDS011;16625;53.624;10.106;2023-03-01T06:45:09;14.73;;;9.30;;
4921;SDS011;16625;53.624;10.106;2023-03-01T06:47:36;12.93;;;8.07;;
4921;SDS011;16625;53.624;10.106;2023-03-01T06:50:04;18.10;;;10.20;;
4921;SDS011;16625;53.624;10.106;2023-03-01T06:52:31;15.27;;;8.33;;
4921;SDS011;16625;53.624;10.106;2023-03-01T06:54:58;17.00;;;10.40;;
4921;SDS011;16625;53.624;10.106;2023-03-01T06:57:26;22.37;;;8.90;;
4921;SDS011;16625;53.624;10.106;2023-03-01T06:59:54;18.40;;;8.60;;
4921;SDS011;16625;53.624;10.106;2023-03-01T07:02:21;16.00;;;9.40;;
4921;SDS011;16625;53.624;10.106;2023-03-01T07:04:48;20.30;;;9.37;;
4921;SDS011;16625;53.624;10.106;2023-03-01T07:07:16;13.60;;;9.17;;
4921;SDS011;16625;53.624;10.106;2023-03-01T07:09:43;14.30;;;8.97;;
4921;SDS011;16625;53.624;10.106;2023-03-01T07:12:11;19.53;;;10.20;;
4921;SDS011;16625;53.624;10.106;2023-03-01T07:14:41;15.23;;;9.07;;
4921;SDS011;16625;53.624;10.106;2023-03-01T07:17:09;16.63;;;10.17;;
4921;SDS011;16625;53.624;10.106;2023-03-01T07:19:36;18.00;;;9.80;;
4921;SDS011;16625;53.624;10.106;2023-03-01T07:22:03;14.20;;;8.50;;
4921;SDS011;16625;53.624;10.106;2023-03-01T07:24:32;18.20;;;9.10;;
4921;SDS011;16625;53.624;10.106;2023-03-01T07:26:59;17.37;;;9.30;;
4921;SDS011;16625;53.624;10.106;2023-03-01T07:29:27;15.60;;;9.33;;
4921;SDS011;16625;53.624;10.106;2023-03-01T07:31:56;10.00;;;7.80;;
4921;SDS011;16625;53.624;10.106;2023-03-01T07:34:26;9.77;;;6.23;;
4921;SDS011;16625;53.624;10.106;2023-03-01T07:36:53;14.40;;;9.17;;
4921;SDS011;16625;53.624;10.106;2023-03-01T07:42:27;17.10;;;9.37;;
4921;SDS011;16625;53.624;10.106;2023-03-01T07:44:59;18.90;;;10.13;;
4921;SDS011;16625;53.624;10.106;2023-03-01T07:47:29;14.07;;;8.70;;
4921;SDS011;16625;53.624;10.106;2023-03-01T07:49:57;17.07;;;8.00;;
4921;SDS011;16625;53.624;10.106;2023-03-01T07:52:23;19.43;;;8.73;;
4921;SDS011;16625;53.624;10.106;2023-03-01T07:54:50;18.97;;;9.53;;
4921;SDS011;16625;53.624;10.106;2023-03-01T07:57:17;13.70;;;8.40;;
4921;SDS011;16625;53.624;10.106;2023-03-01T07:59:45;13.27;;;8.93;;
4921;SDS011;16625;53.624;10.106;2023-03-01T08:02:12;14.60;;;8.77;;
4921;SDS011;16625;53.624;10.106;2023-03-01T08:04:41;13.20;;;8.60;;
4921;SDS011;16625;53.624;10.106;2023-03-01T08:07:08;13.03;;;9.00;;
4921;SDS011;16625;53.624;10.106;2023-03-01T08:09:35;13.43;;;8.43;;
4921;SDS011;16625;53.624;10.106;2023-03-01T08:12:02;13.40;;;8.17;;
4921;SDS011;16625;53.624;10.106;2023-03-01T08:14:31;14.10;;;8.27;;
4921;SDS011;16625;53.624;10.106;2023-03-01T08:16:59;19.50;;;8.70;;
4921;SDS011;16625;53.624;10.106;2023-03-01T08:19:28;20.00;;;10.00;;
4921;SDS011;16625;53.624;10.106;2023-03-01T08:21:57;18.43;;;11.13;;
4921;SDS011;16625;53.624;10.106;2023-03-01T08:24:25;17.40;;;10.60;;
4921;SDS011;16625;53.624;10.106;2023-03-01T08:26:52;17.63;;;9.67;;
4921;SDS011;16625;53.624;10.106;2023-03-01T08:29:19;15.70;;;8.57;;
4921;SDS011;16625;53.624;10.106;2023-03-01T08:31:46;17.60;;;9.50;;
4921;SDS011;16625;53.624;10.106;2023-03-01T08:34:14;17.37;;;9.60;;
4921;SDS011;16625;53.624;10.106;2023-03-01T08:36:43;16.03;;;11.00;;
4921;SDS011;16625;53.624;10.106;2023-03-01T08:39:13;22.93;;;10.60;;
4921;SDS011;16625;53.624;10.106;2023-03-01T08:41:41;15.77;;;9.20;;
4921;SDS011;16625;53.624;10.106;2023-03-01T08:44:09;18.97;;;10.40;;
4921;SDS011;16625;53.624;10.106;2023-03-01T08:46:38;26.93;;;11.17;;
4921;SDS011;16625;53.624;10.106;2023-03-01T08:49:06;23.47;;;11.20;;
4921;SDS011;16625;53.624;10.106;2023-03-01T08:51:34;26.10;;;11.40;;
4921;SDS011;16625;53.624;10.106;2023-03-01T08:54:03;14.50;;;10.83;;
4921;SDS011;16625;53.624;10.106;2023-03-01T08:56:31;18.77;;;10.20;;
4921;SDS011;16625;53.624;10.106;2023-03-01T08:58:58;17.60;;;10.50;;
4921;SDS011;16625;53.624;10.106;2023-03-01T09:01:25;13.47;;;9.47;;
4921;SDS011;16625;53.624;10.106;2023-03-01T09:03:53;19.57;;;10.90;;
4921;SDS011;16625;53.624;10.106;2023-03-01T09:06:19;17.77;;;10.77;;
4921;SDS011;16625;53.624;10.106;2023-03-01T09:08:47;24.50;;;11.87;;
4921;SDS011;16625;53.624;10.106;2023-03-01T09:11:17;18.93;;;10.37;;
4921;SDS011;16625;53.624;10.106;2023-03-01T09:13:46;19.20;;;10.87;;
4921;SDS011;16625;53.624;10.106;2023-03-01T09:16:15;14.67;;;10.00;;
4921;SDS011;16625;53.624;10.106;2023-03-01T09:18:48;20.43;;;11.53;;
4921;SDS011;16625;53.624;10.106;2023-03-01T09:21:16;17.23;;;10.10;;
4921;SDS011;16625;53.624;10.106;2023-03-01T09:23:44;17.13;;;11.57;;
4921;SDS011;16625;53.624;10.106;2023-03-01T09:26:13;33.57;;;11.40;;
4921;SDS011;16625;53.624;10.106;2023-03-01T09:28:41;16.77;;;8.90;;
4921;SDS011;16625;53.624;10.106;2023-03-01T09:31:10;20.80;;;10.80;;
4921;SDS011;16625;53.624;10.106;2023-03-01T09:33:39;16.13;;;10.87;;
4921;SDS011;16625;53.624;10.106;2023-03-01T09:36:07;14.27;;;9.13;;
4921;SDS011;16625;53.624;10.106;2023-03-01T09:38:38;16.93;;;9.40;;
4921;SDS011;16625;53.624;10.106;2023-03-01T09:41:09;15.30;;;10.00;;
4921;SDS011;16625;53.624;10.106;2023-03-01T09:43:45;20.33;;;10.97;;
4921;SDS011;16625;53.624;10.106;2023-03-01T09:46:20;14.77;;;9.87;;
4921;SDS011;16625;53.624;10.106;2023-03-01T09:48:50;13.57;;;9.07;;
4921;SDS011;16625;53.624;10.106;2023-03-01T09:51:22;20.97;;;9.57;;
4921;SDS011;16625;53.624;10.106;2023-03-01T09:53:53;14.67;;;6.87;;
4921;SDS011;16625;53.624;10.106;2023-03-01T09:56:24;17.33;;;9.77;;
4921;SDS011;16625;53.624;10.106;2023-03-01T09:58:57;17.90;;;9.70;;
4921;SDS011;16625;53.624;10.106;2023-03-01T10:01:36;15.90;;;8.40;;
4921;SDS011;16625;53.624;10.106;2023-03-01T10:04:18;16.90;;;9.70;;
4921;SDS011;16625;53.624;10.106;2023-03-01T10:06:58;13.30;;;8.70;;
4921;SDS011;16625;53.624;10.106;2023-03-01T10:09:34;9.83;;;5.87;;
4921;SDS011;16625;53.624;10.106;2023-03-01T10:12:04;18.03;;;8.10;;
4921;SDS011;16625;53.624;10.106;2023-03-01T10:14:38;15.40;;;9.67;;
4921;SDS011;16625;53.624;10.106;2023-03-01T10:17:17;18.87;;;10.00;;
4921;SDS011;16625;53.624;10.106;2023-03-01T10:19:51;16.00;;;8.97;;
4921;SDS011;16625;53.624;10.106;2023-03-01T10:22:21;16.87;;;9.90;;
4921;SDS011;16625;53.624;10.106;2023-03-01T10:24:51;23.63;;;10.30;;
4921;SDS011;16625;53.624;10.106;2023-03-01T10:27:21;16.33;;;9.30;;
4921;SDS011;16625;53.624;10.106;2023-03-01T10:29:53;23.23;;;9.40;;
4921;SDS011;16625;53.624;10.106;2023-03-01T10:32:29;15.10;;;9.30;;
4921;SDS011;16625;53.624;10.106;2023-03-01T10:34:57;18.20;;;10.33;;
4921;SDS011;16625;53.624;10.106;2023-03-01T10:37:24;23.90;;;11.43;;
4921;SDS011;16625;53.624;10.106;2023-03-01T10:39:56;16.67;;;9.80;;
4921;SDS011;16625;53.624;10.106;2023-03-01T10:42:28;15.63;;;10.07;;
4921;SDS011;16625;53.624;10.106;2023-03-01T10:44:57;17.50;;;9.27;;
4921;SDS011;16625;53.624;10.106;2023-03-01T10:47:42;26.33;;;11.23;;
4921;SDS011;16625;53.624;10.106;2023-03-01T10:50:17;14.60;;;9.90;;
4921;SDS011;16625;53.624;10.106;2023-03-01T10:52:55;15.37;;;9.10;;
4921;SDS011;16625;53.624;10.106;2023-03-01T10:55:24;12.23;;;7.47;;
4921;SDS011;16625;53.624;10.106;2023-03-01T10:58:07;18.70;;;10.07;;
4921;SDS011;16625;53.624;10.106;2023-03-01T11:00:46;15.87;;;9.07;;
4921;SDS011;16625;53.624;10.106;2023-03-01T11:03:18;13.73;;;8.40;;
4921;SDS011;16625;53.624;10.106;2023-03-01T11:05:56;19.47;;;6.90;;
4921;SDS011;16625;53.624;10.106;2023-03-01T11:08:32;13.80;;;8.00;;
4921;SDS011;16625;53.624;10.106;2023-03-01T11:13:50;14.30;;;9.07;;
4921;SDS011;16625;53.624;10.106;2023-03-01T11:16:22;16.80;;;9.60;;
4921;SDS011;16625;53.624;10.106;2023-03-01T11:19:00;11.50;;;6.83;;
4921;SDS011;16625;53.624;10.106;2023-03-01T11:21:39;12.60;;;6.73;;
4921;SDS011;16625;53.624;10.106;2023-03-01T11:24:13;14.10;;;7.53;;
4921;SDS011;16625;53.624;10.106;2023-03-01T11:26:42;9.57;;;5.97;;
4921;SDS011;16625;53.624;10.106;2023-03-01T11:29:21;7.50;;;4.33;;
4921;SDS011;16625;53.624;10.106;2023-03-01T11:31:54;9.43;;;6.47;;
4921;SDS011;16625;53.624;10.106;2023-03-01T11:34:31;15.30;;;7.63;;
4921;SDS011;16625;53.624;10.106;2023-03-01T11:37:10;16.03;;;7.10;;
4921;SDS011;16625;53.624;10.106;2023-03-01T11:39:50;14.93;;;7.17;;
4921;SDS011;16625;53.624;10.106;2023-03-01T11:42:28;13.30;;;7.30;;
4921;SDS011;16625;53.624;10.106;2023-03-01T11:45:06;15.53;;;7.33;;
4921;SDS011;16625;53.624;10.106;2023-03-01T11:47:40;11.43;;;7.10;;
4921;SDS011;16625;53.624;10.106;2023-03-01T11:50:28;11.87;;;6.90;;
4921;SDS011;16625;53.624;10.106;2023-03-01T11:53:01;11.47;;;7.00;;
4921;SDS011;16625;53.624;10.106;2023-03-01T11:55:44;15.50;;;7.00;;
4921;SDS011;16625;53.624;10.106;2023-03-01T11:58:27;10.03;;;7.47;;
4921;SDS011;16625;53.624;10.106;2023-03-01T12:01:09;8.87;;;6.60;;
4921;SDS011;16625;53.624;10.106;2023-03-01T12:06:47;10.00;;;6.80;;
4921;SDS011;16625;53.624;10.106;2023-03-01T12:09:36;11.10;;;6.70;;
4921;SDS011;16625;53.624;10.106;2023-03-01T12:12:18;9.47;;;5.90;;
4921;SDS011;16625;53.624;10.106;2023-03-01T12:14:55;12.50;;;6.37;;
4921;SDS011;16625;53.624;10.106;2023-03-01T12:17:37;10.30;;;6.23;;
4921;SDS011;16625;53.624;10.106;2023-03-01T12:20:21;16.50;;;8.00;;
4921;SDS011;16625;53.624;10.106;2023-03-01T12:26:13;10.37;;;6.47;;
4921;SDS011;16625;53.624;10.106;2023-03-01T12:29:11;16.63;;;7.27;;
4921;SDS011;16625;53.624;10.106;2023-03-01T12:42:17;12.47;;;7.03;;
4921;SDS011;16625;53.624;10.106;2023-03-01T12:48:55;10.93;;;6.83;;
4921;SDS011;16625;53.624;10.106;2023-03-01T13:02:45;12.10;;;6.60;;
4921;SDS011;16625;53.624;10.106;2023-03-01T13:05:51;14.57;;;6.03;;
4921;SDS011;16625;53.624;10.106;2023-03-01T13:09:01;9.30;;;6.57;;
4921;SDS011;16625;53.624;10.106;2023-03-01T13:11:49;11.13;;;5.80;;
4921;SDS011;16625;53.624;10.106;2023-03-01T13:18:26;6.63;;;4.90;;
4921;SDS011;16625;53.624;10.106;2023-03-01T13:55:42;12.20;;;5.33;;
4921;SDS011;16625;53.624;10.106;2023-03-01T13:58:21;10.10;;;6.07;;
4921;SDS011;16625;53.624;10.106;2023-03-01T14:01:20;12.23;;;4.20;;
4921;SDS011;16625;53.624;10.106;2023-03-01T14:03:53;8.77;;;5.23;;
4921;SDS011;16625;53.624;10.106;2023-03-01T14:06:35;6.80;;;4.67;;
4921;SDS011;16625;53.624;10.106;2023-03-01T14:09:14;6.40;;;4.87;;
4921;SDS011;16625;53.624;10.106;2023-03-01T14:22:47;8.30;;;4.90;;
4921;SDS011;16625;53.624;10.106;2023-03-01T14:25:21;9.50;;;5.47;;
4921;SDS011;16625;53.624;10.106;2023-03-01T14:27:51;13.10;;;6.60;;
4921;SDS011;16625;53.624;10.106;2023-03-01T14:30:23;8.13;;;5.50;;
4921;SDS011;16625;53.624;10.106;2023-03-01T14:32:54;8.90;;;5.30;;
4921;SDS011;16625;53.624;10.106;2023-03-01T14:35:23;7.87;;;5.10;;
4921;SDS011;16625;53.624;10.106;2023-03-01T14:37:57;10.07;;;5.27;;
4921;SDS011;16625;53.624;10.106;2023-03-01T14:40:25;8.63;;;6.03;;
4921;SDS011;16625;53.624;10.106;2023-03-01T14:42:54;7.80;;;5.20;;
4921;SDS011;16625;53.624;10.106;2023-03-01T14:45:24;9.50;;;5.00;;
4921;SDS011;16625;53.624;10.106;2023-03-01T14:47:54;9.93;;;6.00;;
4921;SDS011;16625;53.624;10.106;2023-03-01T14:50:26;6.83;;;5.30;;
4921;SDS011;16625;53.624;10.106;2023-03-01T14:52:55;7.00;;;4.90;;
4921;SDS011;16625;53.624;10.106;2023-03-01T14:55:29;5.10;;;4.60;;
4921;SDS011;16625;53.624;10.106;2023-03-01T14:58:02;7.40;;;4.30;;
4921;SDS011;16625;53.624;10.106;2023-03-01T15:00:30;7.97;;;5.07;;
4921;SDS011;16625;53.624;10.106;2023-03-01T15:03:04;5.93;;;4.30;;
4921;SDS011;16625;53.624;10.106;2023-03-01T15:05:38;9.17;;;4.23;;
4921;SDS011;16625;53.624;10.106;2023-03-01T15:08:11;9.33;;;5.00;;
4921;SDS011;16625;53.624;10.106;2023-03-01T15:10:55;8.03;;;5.10;;
4921;SDS011;16625;53.624;10.106;2023-03-01T15:13:26;7.73;;;5.30;;
4921;SDS011;16625;53.624;10.106;2023-03-01T15:16:01;8.03;;;4.47;;
4921;SDS011;16625;53.624;10.106;2023-03-01T15:18:42;8.13;;;5.43;;
4921;SDS011;16625;53.624;10.106;2023-03-01T15:21:15;6.63;;;4.47;;
4921;SDS011;16625;53.624;10.106;2023-03-01T15:23:48;7.37;;;4.63;;
4921;SDS011;16625;53.624;10.106;2023-03-01T15:26:27;10.10;;;5.27;;
4921;SDS011;16625;53.624;10.106;2023-03-01T15:28:59;7.37;;;4.87;;
4921;SDS011;16625;53.624;10.106;2023-03-01T15:31:27;6.23;;;4.20;;
4921;SDS011;16625;53.624;10.106;2023-03-01T15:34:09;7.90;;;5.37;;
4921;SDS011;16625;53.624;10.106;2023-03-01T15:36:47;9.40;;;4.90;;
4921;SDS011;16625;53.624;10.106;2023-03-01T15:42:08;9.60;;;5.30;;
4921;SDS011;16625;53.624;10.106;2023-03-01T15:44:39;7.93;;;5.10;;
4921;SDS011;16625;53.624;10.106;2023-03-01T15:47:33;13.70;;;6.17;;
4921;SDS011;16625;53.624;10.106;2023-03-01T15:50:04;11.33;;;6.20;;
4921;SDS011;16625;53.624;10.106;2023-03-01T15:52:42;8.50;;;6.13;;
4921;SDS011;16625;53.624;10.106;2023-03-01T15:55:33;8.33;;;6.00;;
4921;SDS011;16625;53.624;10.106;2023-03-01T15:58:12;12.40;;;7.13;;
4921;SDS011;16625;53.624;10.106;2023-03-01T16:01:00;12.03;;;6.90;;
4921;SDS011;16625;53.624;10.106;2023-03-01T16:03:40;10.43;;;6.60;;
4921;SDS011;16625;53.624;10.106;2023-03-01T16:06:27;14.00;;;8.30;;
4921;SDS011;16625;53.624;10.106;2023-03-01T16:09:04;10.10;;;7.07;;
4921;SDS011;16625;53.624;10.106;2023-03-01T16:11:34;13.87;;;8.07;;
4921;SDS011;16625;53.624;10.106;2023-03-01T16:14:07;11.93;;;8.17;;
4921;SDS011;16625;53.624;10.106;2023-03-01T16:16:48;17.17;;;9.37;;
4921;SDS011;16625;53.624;10.106;2023-03-01T16:19:26;14.03;;;8.70;;
4921;SDS011;16625;53.624;10.106;2023-03-01T16:22:08;15.23;;;8.70;;